Weather at Deadhorse Airport

Public forecast

Using degrees Fahrenheit for public forecast. Weather courtesy of forecast.io.

Current aviation weather report (METAR) for Deadhorse Airport

Retrieved 2020/09/19 05:24 UTC (17 minutes ago):

PASC 190524Z 31015KT 2SM BR OVC003 01/01 A2933 RMK AO2 VIS 1 1/2V5 T00110006 PNO

Aviation forecast (TAF) for Deadhorse Airport

Retrieved 2020-09-19 00:30 UTC (5 hours ago):

TAF PASC 182324Z 1900/1924 27008KT 6SM -RA BR OVC005 FM191200 27008KT 4SM -RA BR OVC005 FM191800 27008KT 2SM -RA BR OVC005